createdAt,value
2022-08-27T00:01:22.885Z,101634.25
2022-08-27T00:03:50.242Z,101625.53
2022-08-27T00:06:20.183Z,101615.34
2022-08-27T00:08:49.819Z,101633.22
2022-08-27T00:11:20.347Z,101618.50
2022-08-27T00:13:48.365Z,101629.97
2022-08-27T00:16:17.299Z,101628.78
2022-08-27T00:18:48.098Z,101626.63
2022-08-27T00:21:19.219Z,101628.31
2022-08-27T00:23:46.826Z,101626.09
2022-08-27T00:26:15.256Z,101622.72
2022-08-27T00:28:43.223Z,101628.50
2022-08-27T00:31:12.129Z,101633.16
2022-08-27T00:33:41.165Z,101632.00
2022-08-27T00:36:15.042Z,101638.81
2022-08-27T00:38:43.120Z,101629.59
2022-08-27T00:41:12.458Z,101624.09
2022-08-27T00:43:57.982Z,101628.41
2022-08-27T00:46:38.780Z,101624.47
2022-08-27T00:49:18.226Z,101616.91
2022-08-27T00:51:52.424Z,101623.03
2022-08-27T00:54:21.057Z,101615.38
2022-08-27T00:56:51.909Z,101632.94
2022-08-27T00:59:31.394Z,101630.75
2022-08-27T01:02:18.009Z,101626.31
2022-08-27T01:05:13.837Z,101641.81
2022-08-27T01:07:44.016Z,101631.75
2022-08-27T01:10:19.126Z,101641.09
2022-08-27T01:12:53.232Z,101631.50
2022-08-27T01:15:24.820Z,101616.25
2022-08-27T01:17:52.646Z,101624.69
2022-08-27T01:20:29.670Z,101635.56
2022-08-27T01:23:39.573Z,101637.88
2022-08-27T01:26:08.430Z,101642.09
2022-08-27T01:28:37.772Z,101643.50
2022-08-27T01:31:10.739Z,101630.25
2022-08-27T01:33:39.117Z,101642.78
2022-08-27T01:36:07.254Z,101645.00
2022-08-27T01:38:34.632Z,101622.19
2022-08-27T01:41:03.537Z,101624.16
2022-08-27T01:43:31.692Z,101626.28
2022-08-27T01:45:59.150Z,101638.53
2022-08-27T01:48:26.238Z,101641.47
2022-08-27T01:50:53.397Z,101630.06
2022-08-27T01:53:24.577Z,101640.78
2022-08-27T01:55:53.661Z,101621.66
2022-08-27T01:58:25.327Z,101633.31
2022-08-27T02:00:56.631Z,101633.09
2022-08-27T02:03:24.774Z,101624.63
2022-08-27T02:05:52.461Z,101629.56
2022-08-27T02:08:19.984Z,101624.97
2022-08-27T02:10:49.753Z,101612.09
2022-08-27T02:13:18.723Z,101610.06
2022-08-27T02:15:45.777Z,101610.78
2022-08-27T02:18:13.894Z,101609.31
2022-08-27T02:20:43.845Z,101611.78
2022-08-27T02:23:11.482Z,101603.56
2022-08-27T02:25:38.757Z,101609.31
2022-08-27T02:28:06.421Z,101600.91
2022-08-27T02:30:34.535Z,101591.97
2022-08-27T02:33:04.527Z,101600.03
2022-08-27T02:35:38.823Z,101598.03
2022-08-27T02:38:08.018Z,101597.88
2022-08-27T02:40:35.990Z,101594.25
2022-08-27T02:43:03.725Z,101596.09
2022-08-27T02:45:30.724Z,101600.75
2022-08-27T02:47:58.018Z,101597.59
2022-08-27T02:50:27.342Z,101590.13
2022-08-27T02:52:54.984Z,101594.13
2022-08-27T02:55:22.852Z,101588.28
2022-08-27T02:57:50.027Z,101596.69
2022-08-27T03:00:22.578Z,101593.78
2022-08-27T03:02:49.999Z,101597.91
2022-08-27T03:05:18.344Z,101600.69
2022-08-27T03:07:45.842Z,101591.13
2022-08-27T03:10:16.514Z,101604.72
2022-08-27T03:12:44.347Z,101607.69
2022-08-27T03:15:15.987Z,101600.94
2022-08-27T03:18:02.315Z,101594.25
2022-08-27T03:20:29.808Z,101597.47
2022-08-27T03:22:57.118Z,101590.84
2022-08-27T03:25:24.335Z,101591.34
2022-08-27T03:27:51.377Z,101578.91
2022-08-27T03:30:22.146Z,101581.22
2022-08-27T03:32:50.286Z,101592.97
2022-08-27T03:35:19.575Z,101582.72
2022-08-27T03:37:47.137Z,101583.72
2022-08-27T03:40:15.058Z,101585.34
2022-08-27T03:42:42.316Z,101588.59
2022-08-27T03:45:11.162Z,101570.72
2022-08-27T03:47:38.678Z,101580.78
2022-08-27T03:50:07.351Z,101576.00
2022-08-27T03:52:36.244Z,101577.16
2022-08-27T03:55:05.858Z,101569.88
2022-08-27T03:57:33.483Z,101560.31
2022-08-27T04:00:01.238Z,101567.88
2022-08-27T04:02:29.004Z,101583.69
2022-08-27T04:04:57.800Z,101581.72
2022-08-27T04:07:24.847Z,101572.19
2022-08-27T04:09:51.931Z,101578.75
2022-08-27T04:12:18.924Z,101578.69
2022-08-27T04:14:49.264Z,101585.16
2022-08-27T04:17:18.993Z,101575.28
2022-08-27T04:19:45.906Z,101574.16
2022-08-27T04:22:13.153Z,101569.69
2022-08-27T04:24:40.748Z,101555.31
2022-08-27T04:27:07.696Z,101579.44
2022-08-27T04:29:35.092Z,101562.59
2022-08-27T04:32:03.400Z,101586.72
2022-08-27T04:34:30.931Z,101569.84
2022-08-27T04:36:58.545Z,101577.44
2022-08-27T04:39:28.224Z,101567.16
2022-08-27T04:41:58.587Z,101583.03
2022-08-27T04:44:36.331Z,101575.06
2022-08-27T04:47:05.869Z,101579.66
2022-08-27T04:49:34.040Z,101582.69
2022-08-27T04:52:01.476Z,101585.34
2022-08-27T04:54:33.067Z,101588.94
2022-08-27T04:57:05.680Z,101587.81
2022-08-27T04:59:33.455Z,101590.94
2022-08-27T05:02:01.546Z,101600.75
2022-08-27T05:04:32.070Z,101601.00
2022-08-27T05:07:00.590Z,101599.88
2022-08-27T05:09:27.526Z,101598.06
2022-08-27T05:11:56.204Z,101611.06
2022-08-27T05:14:25.481Z,101609.88
2022-08-27T05:16:52.360Z,101608.13
2022-08-27T05:19:19.248Z,101616.22
2022-08-27T05:21:51.878Z,101615.81
2022-08-27T05:24:19.284Z,101615.22
2022-08-27T05:26:46.445Z,101625.66
2022-08-27T05:29:14.286Z,101620.22
2022-08-27T05:31:42.693Z,101623.63
2022-08-27T05:34:16.537Z,101624.84
2022-08-27T05:36:51.864Z,101621.06
2022-08-27T05:39:18.955Z,101624.59
2022-08-27T05:41:45.942Z,101635.25
2022-08-27T05:44:39.585Z,101630.22
2022-08-27T05:47:00.144Z,101634.09
2022-08-27T05:49:27.084Z,101615.56
2022-08-27T05:51:54.003Z,101626.16
2022-08-27T05:54:20.915Z,101638.38
2022-08-27T05:56:49.922Z,101642.50
2022-08-27T05:59:46.459Z,101628.63
2022-08-27T06:02:13.436Z,101615.88
2022-08-27T06:04:40.447Z,101613.81
2022-08-27T06:07:10.675Z,101611.97
2022-08-27T06:09:39.158Z,101591.38
2022-08-27T06:12:07.004Z,101598.03
2022-08-27T06:14:41.001Z,101595.72
2022-08-27T06:17:08.012Z,101580.56
2022-08-27T06:19:36.374Z,101579.47
2022-08-27T06:22:10.350Z,101585.06
2022-08-27T06:24:41.428Z,101579.78
2022-08-27T06:27:26.756Z,101588.66
2022-08-27T06:29:53.778Z,101577.53
2022-08-27T06:32:21.011Z,101587.31
2022-08-27T06:34:47.961Z,101573.44
2022-08-27T06:37:14.964Z,101580.91
2022-08-27T06:39:41.894Z,101582.25
2022-08-27T06:42:12.441Z,101591.53
2022-08-27T06:44:40.284Z,101585.84
2022-08-27T06:47:07.253Z,101567.72
2022-08-27T06:49:34.155Z,101580.16
2022-08-27T06:52:01.577Z,101579.88
2022-08-27T06:54:28.512Z,101584.75
2022-08-27T06:57:00.516Z,101581.22
2022-08-27T06:59:27.883Z,101581.66
2022-08-27T07:01:54.874Z,101575.75
2022-08-27T07:04:25.370Z,101573.06
2022-08-27T07:06:59.817Z,101576.66
2022-08-27T07:09:27.132Z,101578.31
2022-08-27T07:11:57.391Z,101578.13
2022-08-27T07:14:25.024Z,101577.97
2022-08-27T07:16:52.592Z,101585.34
2022-08-27T07:19:24.249Z,101588.34
2022-08-27T07:21:51.943Z,101591.91
2022-08-27T07:24:19.674Z,101579.59
2022-08-27T07:26:46.903Z,101585.47
2022-08-27T07:29:15.505Z,101578.91
2022-08-27T07:31:43.894Z,101582.03
2022-08-27T07:34:10.880Z,101583.63
2022-08-27T07:36:38.618Z,101586.84
2022-08-27T07:39:09.376Z,101585.34
2022-08-27T07:41:56.723Z,101590.00
2022-08-27T07:44:27.995Z,101581.91
2022-08-27T07:46:57.187Z,101593.13
2022-08-27T07:49:25.929Z,101589.78
2022-08-27T07:51:53.388Z,101593.00
2022-08-27T07:54:22.900Z,101592.38
2022-08-27T07:56:55.462Z,101583.06
2022-08-27T07:59:25.091Z,101589.06
2022-08-27T08:01:55.887Z,101588.03
2022-08-27T08:04:23.439Z,101584.50
2022-08-27T08:06:51.706Z,101585.03
2022-08-27T08:09:20.367Z,101577.44
2022-08-27T08:11:47.333Z,101584.63
2022-08-27T08:14:14.375Z,101584.63
2022-08-27T08:16:41.470Z,101595.28
2022-08-27T08:19:09.391Z,101591.34
2022-08-27T08:21:36.781Z,101595.69
2022-08-27T08:24:07.203Z,101606.13
2022-08-27T08:26:36.907Z,101609.00
2022-08-27T08:29:08.875Z,101614.69
2022-08-27T08:31:42.303Z,101608.59
2022-08-27T08:34:17.104Z,101609.72
2022-08-27T08:36:59.454Z,101612.22
2022-08-27T08:39:34.786Z,101607.16
2022-08-27T08:42:09.385Z,101611.50
2022-08-27T08:44:54.816Z,101612.78
2022-08-27T08:47:53.847Z,101605.47
2022-08-27T08:50:30.702Z,101610.13
2022-08-27T08:53:38.855Z,101610.25
2022-08-27T08:56:19.132Z,101621.66
2022-08-27T08:59:14.530Z,101613.63
2022-08-27T09:01:44.805Z,101622.81
2022-08-27T09:04:13.117Z,101610.00
2022-08-27T09:06:58.345Z,101617.56
2022-08-27T09:09:55.953Z,101616.09
2022-08-27T09:12:30.598Z,101612.63
2022-08-27T09:15:06.337Z,101619.56
2022-08-27T09:17:40.276Z,101616.44
2022-08-27T09:20:13.224Z,101607.59
2022-08-27T09:23:31.200Z,101618.59
2022-08-27T09:25:58.108Z,101613.81
2022-08-27T09:28:47.152Z,101623.44
2022-08-27T09:31:19.029Z,101619.25
2022-08-27T09:33:56.488Z,101619.69
2022-08-27T09:36:24.922Z,101616.09
2022-08-27T09:39:02.473Z,101613.69
2022-08-27T09:41:46.419Z,101602.09
2022-08-27T09:44:18.463Z,101605.53
2022-08-27T09:47:03.425Z,101612.66
2022-08-27T09:49:34.449Z,101607.31
2022-08-27T09:52:02.259Z,101598.72
2022-08-27T09:54:43.591Z,101596.63
2022-08-27T09:57:13.226Z,101600.16
2022-08-27T09:59:53.220Z,101604.69
2022-08-27T10:02:25.193Z,101595.28
2022-08-27T10:05:17.497Z,101602.38
2022-08-27T10:07:55.476Z,101600.00
2022-08-27T10:10:43.633Z,101607.03
2022-08-27T10:13:24.269Z,101605.25
2022-08-27T10:16:38.950Z,101599.38
2022-08-27T10:19:14.690Z,101600.69
2022-08-27T10:22:16.275Z,101598.28
2022-08-27T10:25:14.284Z,101595.81
2022-08-27T10:28:41.556Z,101602.56
2022-08-27T10:31:23.037Z,101598.28
2022-08-27T10:34:13.849Z,101590.09
2022-08-27T10:37:36.834Z,101596.09
2022-08-27T10:40:24.451Z,101588.31
2022-08-27T10:43:42.540Z,101594.41
2022-08-27T10:46:50.078Z,101588.88
2022-08-27T10:49:43.318Z,101586.56
2022-08-27T10:52:31.950Z,101573.91
2022-08-27T10:55:10.280Z,101564.13
2022-08-27T10:58:01.170Z,101562.50
2022-08-27T11:00:59.915Z,101559.84
2022-08-27T11:03:42.013Z,101560.06
2022-08-27T11:06:32.495Z,101564.41
2022-08-27T11:09:07.854Z,101561.47
2022-08-27T11:12:14.176Z,101560.09
2022-08-27T11:14:56.836Z,101555.66
2022-08-27T11:17:51.559Z,101557.88
2022-08-27T11:20:31.224Z,101554.94
2022-08-27T11:23:31.266Z,101557.94
2022-08-27T11:26:04.033Z,101541.78
2022-08-27T11:28:39.768Z,101546.97
2022-08-27T11:31:44.337Z,101548.03
2022-08-27T11:34:19.766Z,101540.06
2022-08-27T11:37:16.853Z,101539.91
2022-08-27T11:39:57.056Z,101543.91
2022-08-27T11:42:44.434Z,101537.53
2022-08-27T11:45:31.222Z,101533.75
2022-08-27T11:48:14.790Z,101538.34
2022-08-27T11:50:41.818Z,101541.63
2022-08-27T11:53:09.130Z,101530.00
2022-08-27T11:55:39.150Z,101533.53
2022-08-27T11:58:26.021Z,101528.66
2022-08-27T12:00:54.059Z,101526.47
2022-08-27T12:03:30.450Z,101526.97
2022-08-27T12:05:57.899Z,101522.66
2022-08-27T12:08:32.103Z,101524.47
2022-08-27T12:11:31.457Z,101529.97
2022-08-27T12:14:17.548Z,101532.34
2022-08-27T12:17:14.490Z,101535.84
2022-08-27T12:19:58.624Z,101535.19
2022-08-27T12:23:25.306Z,101529.78
2022-08-27T12:26:25.941Z,101525.59
2022-08-27T12:29:24.631Z,101532.66
2022-08-27T12:32:42.669Z,101529.50
2022-08-27T12:35:21.211Z,101528.72
2022-08-27T12:37:56.994Z,101532.72
2022-08-27T12:40:30.723Z,101531.72
2022-08-27T12:43:10.853Z,101525.91
2022-08-27T12:45:51.431Z,101533.38
2022-08-27T12:48:27.681Z,101537.44
2022-08-27T12:51:02.996Z,101540.25
2022-08-27T12:54:10.419Z,101534.25
2022-08-27T12:57:02.752Z,101533.69
2022-08-27T12:59:57.216Z,101535.88
2022-08-27T13:03:09.112Z,101528.91
2022-08-27T13:05:49.682Z,101534.41
2022-08-27T13:08:32.945Z,101538.28
2022-08-27T13:11:21.852Z,101534.38
2022-08-27T13:13:50.339Z,101522.66
2022-08-27T13:16:20.063Z,101533.28
2022-08-27T13:18:49.906Z,101537.03
2022-08-27T13:21:27.532Z,101535.19
2022-08-27T13:24:00.346Z,101537.34
2022-08-27T13:26:33.969Z,101536.78
2022-08-27T13:29:03.807Z,101536.50
2022-08-27T13:31:32.232Z,101532.63
2022-08-27T13:34:00.491Z,101528.50
2022-08-27T13:36:47.792Z,101529.16
2022-08-27T13:39:14.758Z,101530.56
2022-08-27T13:41:41.924Z,101523.44
2022-08-27T13:44:19.876Z,101524.63
2022-08-27T13:46:51.011Z,101518.19
2022-08-27T13:49:24.931Z,101528.25
2022-08-27T13:52:14.983Z,101514.09
2022-08-27T13:54:49.478Z,101515.16
2022-08-27T13:57:32.417Z,101520.53
2022-08-27T14:00:23.088Z,101513.69
2022-08-27T14:02:56.113Z,101508.22
2022-08-27T14:05:23.393Z,101508.97
2022-08-27T14:08:14.357Z,101509.72
2022-08-27T14:10:47.134Z,101505.22
2022-08-27T14:13:23.504Z,101495.72
2022-08-27T14:15:56.855Z,101497.06
2022-08-27T14:18:58.005Z,101502.09
2022-08-27T14:21:24.139Z,101498.50
2022-08-27T14:23:53.997Z,101493.31
2022-08-27T14:26:21.448Z,101493.38
2022-08-27T14:28:48.711Z,101501.22
2022-08-27T14:31:16.661Z,101492.31
2022-08-27T14:33:43.711Z,101487.91
2022-08-27T14:36:11.414Z,101485.22
2022-08-27T14:38:43.100Z,101487.19
2022-08-27T14:41:10.452Z,101489.38
2022-08-27T14:43:38.300Z,101491.22
2022-08-27T14:46:08.198Z,101496.47
2022-08-27T14:48:36.839Z,101484.50
2022-08-27T14:51:26.497Z,101487.00
2022-08-27T14:53:54.226Z,101479.94
2022-08-27T14:56:24.007Z,101486.00
2022-08-27T14:58:51.804Z,101482.66
2022-08-27T15:01:29.574Z,101478.59
2022-08-27T15:03:57.670Z,101474.03
2022-08-27T15:06:25.244Z,101478.09
2022-08-27T15:08:53.896Z,101475.94
2022-08-27T15:11:25.549Z,101481.16
2022-08-27T15:13:59.987Z,101489.50
2022-08-27T15:16:33.226Z,101488.22
2022-08-27T15:19:01.588Z,101486.78
2022-08-27T15:21:30.638Z,101482.59
2022-08-27T15:24:03.126Z,101479.44
2022-08-27T15:26:30.317Z,101485.16
2022-08-27T15:28:57.473Z,101482.47
2022-08-27T15:31:24.654Z,101482.56
2022-08-27T15:33:51.914Z,101483.06
2022-08-27T15:36:18.936Z,101483.97
2022-08-27T15:38:45.879Z,101487.88
2022-08-27T15:41:13.156Z,101488.28
2022-08-27T15:43:40.343Z,101491.34
2022-08-27T15:46:08.689Z,101491.41
2022-08-27T15:48:35.840Z,101493.78
2022-08-27T15:51:07.689Z,101494.09
2022-08-27T15:53:35.286Z,101487.66
2022-08-27T15:56:06.080Z,101484.78
2022-08-27T15:58:35.259Z,101483.91
2022-08-27T16:01:10.321Z,101482.28
2022-08-27T16:03:39.301Z,101485.47
2022-08-27T16:06:06.894Z,101479.16
2022-08-27T16:08:36.777Z,101483.50
2022-08-27T16:11:09.161Z,101481.31
2022-08-27T16:13:36.735Z,101467.47
2022-08-27T16:16:06.181Z,101472.06
2022-08-27T16:18:34.733Z,101473.72
2022-08-27T16:21:04.142Z,101490.19
2022-08-27T16:23:32.743Z,101486.75
2022-08-27T16:26:00.744Z,101476.75
2022-08-27T16:28:27.648Z,101476.72
2022-08-27T16:31:01.701Z,101477.78
2022-08-27T16:33:28.807Z,101474.66
2022-08-27T16:35:55.888Z,101479.75
2022-08-27T16:38:23.271Z,101479.44
2022-08-27T16:40:54.327Z,101477.44
2022-08-27T16:43:25.633Z,101471.63
2022-08-27T16:45:55.761Z,101470.75
2022-08-27T16:48:42.864Z,101472.09
2022-08-27T16:51:18.303Z,101471.19
2022-08-27T16:53:54.930Z,101470.69
2022-08-27T16:56:28.578Z,101481.25
2022-08-27T16:58:56.336Z,101479.19
2022-08-27T17:01:25.197Z,101480.56
2022-08-27T17:04:09.207Z,101477.50
2022-08-27T17:06:39.745Z,101470.50
2022-08-27T17:09:07.790Z,101468.69
2022-08-27T17:11:36.031Z,101476.75
2022-08-27T17:14:04.586Z,101472.81
2022-08-27T17:16:34.933Z,101472.50
2022-08-27T17:19:05.198Z,101474.88
2022-08-27T17:21:34.788Z,101475.38
2022-08-27T17:24:02.629Z,101480.59
2022-08-27T17:26:32.339Z,101479.00
2022-08-27T17:29:00.035Z,101484.78
2022-08-27T17:31:35.743Z,101483.31
2022-08-27T17:34:04.053Z,101487.97
2022-08-27T17:36:32.045Z,101479.84
2022-08-27T17:39:02.629Z,101481.94
2022-08-27T17:41:40.299Z,101495.25
2022-08-27T17:44:27.474Z,101493.78
2022-08-27T17:46:58.399Z,101497.13
2022-08-27T17:49:27.274Z,101502.50
2022-08-27T17:52:17.391Z,101499.19
2022-08-27T17:54:48.617Z,101500.03
2022-08-27T17:57:29.401Z,101504.56
2022-08-27T18:00:09.706Z,101511.19
2022-08-27T18:02:47.425Z,101510.16
2022-08-27T18:05:16.976Z,101503.91
2022-08-27T18:07:45.636Z,101508.09
2022-08-27T18:10:18.500Z,101512.56
2022-08-27T18:12:46.422Z,101513.91
2022-08-27T18:15:25.742Z,101509.97
2022-08-27T18:17:54.176Z,101510.25
2022-08-27T18:20:28.126Z,101526.84
2022-08-27T18:22:58.945Z,101520.34
2022-08-27T18:25:35.253Z,101524.63
2022-08-27T18:28:08.766Z,101526.28
2022-08-27T18:30:36.177Z,101530.13
2022-08-27T18:33:03.800Z,101536.88
2022-08-27T18:35:33.372Z,101543.94
2022-08-27T18:38:01.322Z,101545.41
2022-08-27T18:40:36.111Z,101548.97
2022-08-27T18:43:05.101Z,101549.03
2022-08-27T18:45:33.291Z,101549.53
2022-08-27T18:48:02.412Z,101553.91
2022-08-27T18:50:30.025Z,101545.81
2022-08-27T18:52:57.852Z,101551.19
2022-08-27T18:55:28.159Z,101557.78
2022-08-27T18:57:55.592Z,101553.81
2022-08-27T19:00:22.934Z,101565.44
2022-08-27T19:02:52.842Z,101561.06
2022-08-27T19:05:26.650Z,101565.84
2022-08-27T19:07:55.288Z,101565.41
2022-08-27T19:10:23.181Z,101569.22
2022-08-27T19:12:50.100Z,101572.97
2022-08-27T19:15:17.506Z,101576.41
2022-08-27T19:17:50.447Z,101588.56
2022-08-27T19:20:18.689Z,101582.34
2022-08-27T19:22:47.496Z,101589.50
2022-08-27T19:25:16.404Z,101584.00
2022-08-27T19:27:44.403Z,101588.44
2022-08-27T19:30:13.617Z,101591.16
2022-08-27T19:32:40.840Z,101604.75
2022-08-27T19:35:09.015Z,101600.81
2022-08-27T19:37:44.228Z,101602.94
2022-08-27T19:40:15.537Z,101608.16
2022-08-27T19:42:42.569Z,101602.91
2022-08-27T19:45:10.421Z,101609.94
2022-08-27T19:47:37.702Z,101613.16
2022-08-27T19:50:05.652Z,101607.66
2022-08-27T19:52:32.551Z,101613.66
2022-08-27T19:55:15.061Z,101623.06
2022-08-27T19:57:43.813Z,101617.31
2022-08-27T20:00:14.107Z,101626.19
2022-08-27T20:02:43.840Z,101616.38
2022-08-27T20:05:19.232Z,101615.38
2022-08-27T20:07:49.633Z,101622.84
2022-08-27T20:10:19.075Z,101621.59
2022-08-27T20:12:46.030Z,101634.97
2022-08-27T20:15:13.311Z,101629.78
2022-08-27T20:17:40.630Z,101630.75
2022-08-27T20:20:08.837Z,101640.63
2022-08-27T20:22:35.970Z,101633.63
2022-08-27T20:25:02.968Z,101623.97
2022-08-27T20:27:30.160Z,101616.38
2022-08-27T20:29:57.419Z,101626.66
2022-08-27T20:32:29.701Z,101618.03
2022-08-27T20:34:57.733Z,101627.00
2022-08-27T20:37:24.783Z,101635.03
2022-08-27T20:39:52.531Z,101628.63
2022-08-27T20:42:20.307Z,101632.16
2022-08-27T20:44:48.098Z,101642.22
2022-08-27T20:47:17.215Z,101634.72
2022-08-27T20:49:44.703Z,101639.88
2022-08-27T20:52:13.056Z,101642.41
2022-08-27T20:54:40.382Z,101645.94
2022-08-27T20:57:08.926Z,101633.56
2022-08-27T20:59:54.521Z,101653.44
2022-08-27T21:02:26.248Z,101656.84
2022-08-27T21:04:58.119Z,101652.06
2022-08-27T21:07:25.419Z,101661.31
2022-08-27T21:09:55.854Z,101660.63
2022-08-27T21:12:29.102Z,101662.97
2022-08-27T21:14:58.084Z,101662.56
2022-08-27T21:17:28.183Z,101669.13
2022-08-27T21:19:56.104Z,101659.88
2022-08-27T21:22:24.311Z,101666.75
2022-08-27T21:24:52.310Z,101666.19
2022-08-27T21:27:21.295Z,101658.16
2022-08-27T21:29:48.868Z,101652.47
2022-08-27T21:32:16.946Z,101662.84
2022-08-27T21:34:44.221Z,101664.75
2022-08-27T21:37:13.877Z,101662.00
2022-08-27T21:39:42.600Z,101667.66
2022-08-27T21:42:12.385Z,101668.69
2022-08-27T21:44:39.771Z,101666.63
2022-08-27T21:47:07.119Z,101660.88
2022-08-27T21:49:34.683Z,101663.78
2022-08-27T21:52:06.073Z,101669.94
2022-08-27T21:54:37.547Z,101683.00
2022-08-27T21:57:06.306Z,101665.22
2022-08-27T21:59:43.392Z,101663.97
2022-08-27T22:02:35.738Z,101661.69
2022-08-27T22:04:57.724Z,101678.69
2022-08-27T22:07:24.766Z,101663.31
2022-08-27T22:09:51.683Z,101669.88
2022-08-27T22:12:18.781Z,101672.97
2022-08-27T22:14:45.694Z,101669.75
2022-08-27T22:17:15.784Z,101660.50
2022-08-27T22:19:42.990Z,101666.50
2022-08-27T22:22:10.045Z,101667.44
2022-08-27T22:24:36.988Z,101660.84
2022-08-27T22:27:04.417Z,101653.84
2022-08-27T22:29:31.630Z,101653.00
2022-08-27T22:31:58.886Z,101658.91
2022-08-27T22:34:25.846Z,101663.44
2022-08-27T22:36:53.067Z,101659.63
2022-08-27T22:39:20.435Z,101655.50
2022-08-27T22:41:49.173Z,101667.47
2022-08-27T22:44:16.304Z,101666.13
2022-08-27T22:46:43.261Z,101674.19
2022-08-27T22:49:10.493Z,101659.06
2022-08-27T22:51:38.843Z,101665.81
2022-08-27T22:54:05.787Z,101672.56
2022-08-27T22:56:32.972Z,101669.25
2022-08-27T22:59:00.505Z,101662.53
2022-08-27T23:01:27.885Z,101671.13
2022-08-27T23:03:55.873Z,101677.94
2022-08-27T23:06:22.953Z,101669.47
2022-08-27T23:08:49.884Z,101680.53
2022-08-27T23:11:17.419Z,101675.03
2022-08-27T23:13:45.428Z,101676.47
2022-08-27T23:16:13.919Z,101674.59
2022-08-27T23:18:42.689Z,101680.56
2022-08-27T23:21:10.502Z,101682.53
2022-08-27T23:23:38.573Z,101676.25
2022-08-27T23:26:24.327Z,101684.72
2022-08-27T23:28:51.257Z,101681.59
2022-08-27T23:31:18.882Z,101675.63
2022-08-27T23:33:46.632Z,101678.25
2022-08-27T23:36:13.617Z,101679.91
2022-08-27T23:38:40.567Z,101682.31
2022-08-27T23:41:08.346Z,101689.44
2022-08-27T23:43:35.260Z,101678.28
2022-08-27T23:46:02.265Z,101687.25
2022-08-27T23:48:29.207Z,101684.91
2022-08-27T23:50:56.314Z,101688.50
2022-08-27T23:53:23.229Z,101696.31
2022-08-27T23:55:50.162Z,101686.63
2022-08-27T23:58:17.153Z,101682.16
